CDT,Max TemperatureF,Mean TemperatureF,Min TemperatureF,Max Dew PointF,MeanDew PointF,Min DewpointF,Max Humidity, Mean Humidity, Min Humidity, Max Sea Level PressureIn, Mean Sea Level PressureIn, Min Sea Level PressureIn, Max VisibilityMiles, Mean VisibilityMiles, Min VisibilityMiles, Max Wind SpeedMPH, Mean Wind SpeedMPH, Max Gust SpeedMPH,PrecipitationIn, CloudCover, Events, WindDirDegrees
2013-8-1,79,70,61,65,56,48,100,66,33,30.04,29.99,29.92,10,10,7,17,9,23,0.00,1,Rain-Thunderstorm,279
2013-8-2,82,72,63,68,59,52,100,64,36,29.98,29.91,29.86,10,10,10,13,7,17,0.00,4,Thunderstorm,298
2013-8-3,78,68,59,56,50,45,91,54,30,30.15,30.08,29.99,10,10,10,12,6,17,0.00,2,,347
2013-8-4,77,66,57,62,54,48,100,64,38,30.23,30.17,30.12,10,10,7,8,6,,0.00,2,,39
2013-8-5,72,65,58,69,63,59,100,95,63,30.12,29.98,29.87,10,10,5,18,8,26,0.11,5,Rain,172
2013-8-6,82,73,65,75,69,66,100,88,62,29.90,29.86,29.82,10,7,0,14,5,20,0.01,5,Fog-Thunderstorm,202
2013-8-7,83,74,66,74,66,55,100,78,38,29.98,29.87,29.79,10,9,2,15,10,24,0.00,3,Thunderstorm,286
2013-8-8,78,68,59,68,61,58,100,79,50,30.07,30.01,29.98,10,9,2,12,5,,0.00,4,,70
2013-8-9,80,70,60,62,58,53,99,66,41,30.09,30.02,30.00,10,10,7,14,7,18,0.00,2,,265
2013-8-10,78,68,59,60,53,45,92,58,33,30.17,30.14,30.09,10,10,10,9,6,17,0.00,2,,330
2013-8-11,79,70,60,69,59,53,99,70,48,30.15,30.10,30.04,10,10,10,16,5,22,0.00,6,Rain,230
2013-8-12,82,74,65,71,63,55,100,73,40,30.03,29.97,29.92,10,10,10,14,6,18,0.00,5,,312
2013-8-13,71,62,54,61,49,42,100,63,38,30.17,30.10,29.99,10,10,10,16,9,22,0.00,3,,9
2013-8-14,74,62,52,58,50,43,100,67,35,30.24,30.19,30.14,10,10,10,8,2,,0.00,2,,173
2013-8-15,77,67,58,57,51,43,95,58,31,30.17,30.14,30.11,10,10,10,12,7,,0.00,6,,246
2013-8-16,81,70,60,54,51,46,71,51,30,30.21,30.18,30.14,10,10,10,12,8,,0.00,1,,13
2013-8-17,81,69,58,59,52,47,98,56,31,30.26,30.22,30.18,10,10,10,8,4,,0.00,0,,128
2013-8-18,81,69,57,60,54,48,100,58,32,30.23,30.17,30.12,10,10,10,9,5,,0.00,0,,178
2013-8-19,83,72,61,68,59,54,100,66,39,30.12,30.09,30.05,10,10,7,16,7,21,0.00,1,,214
2013-8-20,86,75,64,70,64,59,100,73,40,30.10,30.06,30.03,10,9,5,18,9,29,0.00,1,,193
2013-8-21,89,78,67,76,68,64,100,73,42,30.06,30.03,29.97,10,10,7,22,13,31,0.00,3,Rain-Thunderstorm,206
2013-8-22,75,72,68,76,70,64,100,96,68,30.16,30.08,30.01,10,9,2,29,7,50,0.55,4,Rain-Thunderstorm,235
2013-8-23,82,72,61,68,58,50,100,67,37,30.20,30.16,30.13,10,9,0,12,5,17,0.00,1,Fog,106
2013-8-24,84,71,59,74,62,49,100,73,48,30.26,30.22,30.17,10,10,10,15,8,20,0.00,1,,152
2013-8-25,90,79,68,73,66,60,100,71,37,30.23,30.18,30.13,10,10,10,22,13,26,0.00,0,,204
2013-8-26,91,80,69,78,71,65,100,77,50,30.14,30.08,30.00,10,10,10,20,13,23,0.00,0,,217
2013-8-27,93,83,73,80,72,69,100,73,44,30.00,29.92,29.85,10,10,10,23,12,30,0.00,0,,220
2013-8-28,84,78,72,78,74,68,100,88,61,30.07,29.98,29.87,10,9,2,12,8,9,0.00,4,,26
2013-8-29,87,76,65,75,68,63,100,81,44,30.11,30.05,29.99,10,7,0,12,5,16,0.00,2,Fog,145
2013-8-30,94,82,70,82,74,69,100,80,43,29.99,29.88,29.78,10,9,2,20,9,24,0.14,2,Rain-Thunderstorm,201
2013-8-31,77,70,64,74,70,65,100,95,70,29.90,29.86,29.81,10,10,10,14,7,18,0.03,5,Rain-Thunderstorm,68